Time;durP1;ratioP1;P1;durP2;ratioP2;P2;SDS_P1;SDS_P2;PMS_P1;PMS_P2;Temp;Humidity;BMP_temperature;BMP_pressure;BME280_temperature;BME280_humidity;BME280_pressure;Samples;Min_cycle;Max_cycle;Signal;HPM_P1;HPM_P2
2023/09/24 09:03:01;;;;;;;0.40;0.40;;;;;;;;;;7388388;19;20656;-84
2023/09/24 09:05:28;;;;;;;0.40;0.40;;;;;;;;;;7385582;19;20440;-85
2023/09/24 09:08:03;;;;;;;0.20;0.20;;;;;;;;;;7386949;19;20385;-85
2023/09/24 09:10:35;;;;;;;1.83;1.73;;;;;;;;;;7387965;19;20447;-86
2023/09/24 09:13:18;;;;;;;1.40;1.30;;;;;;;;;;7386781;19;20351;-84
2023/09/24 09:16:03;;;;;;;0.70;0.70;;;;;;;;;;7388835;19;20749;-85
2023/09/24 09:18:31;;;;;;;0.50;0.50;;;;;;;;;;7386766;19;20351;-88
2023/09/24 09:21:00;;;;;;;0.40;0.40;;;;;;;;;;7390552;19;20352;-84
2023/09/24 09:23:41;;;;;;;2.90;1.70;;;;;;;;;;7390877;19;20337;-84
2023/09/24 09:26:13;;;;;;;1.45;1.17;;;;;;;;;;7411779;19;20321;-86
2023/09/24 09:28:40;;;;;;;1.38;1.27;;;;;;;;;;7414370;19;20447;-84
2023/09/24 09:31:08;;;;;;;1.48;0.70;;;;;;;;;;7406032;19;20389;-87
2023/09/24 09:33:43;;;;;;;1.90;1.20;;;;;;;;;;7418730;19;20373;-86
2023/09/24 09:36:24;;;;;;;0.35;0.35;;;;;;;;;;7400585;19;20336;-85
2023/09/24 09:38:52;;;;;;;0.90;0.70;;;;;;;;;;7390561;19;20340;-85
2023/09/24 09:41:20;;;;;;;0.82;0.77;;;;;;;;;;7390639;19;20360;-85
2023/09/24 09:43:47;;;;;;;0.93;0.77;;;;;;;;;;7388337;19;20860;-85
2023/09/24 09:46:22;;;;;;;2.78;1.58;;;;;;;;;;7389618;19;20325;-83
2023/09/24 09:49:05;;;;;;;0.80;0.80;;;;;;;;;;7385036;19;20351;-87
2023/09/24 09:51:48;;;;;;;0.80;0.80;;;;;;;;;;7384057;19;20889;-84
2023/09/24 09:54:16;;;;;;;0.68;0.57;;;;;;;;;;7385430;19;20357;-84
2023/09/24 09:56:43;;;;;;;0.40;0.40;;;;;;;;;;7382840;19;20366;-85
2023/09/24 09:59:10;;;;;;;0.40;0.40;;;;;;;;;;7386278;19;20344;-85
2023/09/24 10:01:37;;;;;;;0.63;0.63;;;;;;;;;;7390823;19;20468;-85
2023/09/24 10:04:09;;;;;;;0.40;0.40;;;;;;;;;;7395821;19;20136;-86
2023/09/24 10:06:41;;;;;;;0.60;0.60;;;;;;;;;;7395392;19;20669;-84
2023/09/24 10:09:26;;;;;;;0.60;0.60;;;;;;;;;;7394689;19;20721;-85
2023/09/24 10:11:55;;;;;;;0.70;0.70;;;;;;;;;;7395724;19;20353;-82
2023/09/24 10:14:32;;;;;;;0.65;0.65;;;;;;;;;;7391966;19;20408;-82
2023/09/24 10:17:15;;;;;;;0.65;0.55;;;;;;;;;;7390019;19;20331;-84
2023/09/24 10:19:55;;;;;;;0.45;0.45;;;;;;;;;;7394250;19;20336;-84
2023/09/24 10:22:33;;;;;;;0.82;0.82;;;;;;;;;;7393476;19;20347;-85
2023/09/24 10:25:32;;;;;;;0.50;0.50;;;;;;;;;;7392494;19;20369;-84
2023/09/24 10:28:00;;;;;;;0.70;0.70;;;;;;;;;;7392420;19;20903;-84
2023/09/24 10:31:09;;;;;;;0.40;0.40;;;;;;;;;;7393548;19;20424;-85
2023/09/24 10:34:02;;;;;;;0.52;0.52;;;;;;;;;;7390193;19;20357;-86
2023/09/24 10:36:31;;;;;;;0.47;0.47;;;;;;;;;;7390408;19;20352;-85
2023/09/24 10:39:06;;;;;;;0.50;0.50;;;;;;;;;;7389444;19;20385;-85
2023/09/24 10:41:35;;;;;;;1.40;0.80;;;;;;;;;;7392886;19;20340;-84
2023/09/24 10:44:22;;;;;;;0.57;0.57;;;;;;;;;;7389790;19;20344;-85
2023/09/24 10:46:49;;;;;;;0.40;0.40;;;;;;;;;;7387538;19;20718;-85
2023/09/24 10:49:26;;;;;;;0.50;0.50;;;;;;;;;;7390200;19;20357;-88
2023/09/24 10:51:59;;;;;;;0.50;0.50;;;;;;;;;;7387627;19;20762;-85
2023/09/24 10:54:31;;;;;;;0.70;0.70;;;;;;;;;;7390751;19;20357;-86
2023/09/24 10:57:04;;;;;;;0.80;0.50;;;;;;;;;;7389129;19;20359;-89
2023/09/24 10:59:34;;;;;;;0.70;0.70;;;;;;;;;;7390167;19;20373;-87
2023/09/24 11:02:15;;;;;;;0.30;0.30;;;;;;;;;;7393101;19;20424;-86
2023/09/24 11:04:48;;;;;;;0.40;0.40;;;;;;;;;;7394667;19;20351;-86
2023/09/24 11:07:20;;;;;;;0.90;0.50;;;;;;;;;;7395105;19;20357;-87
2023/09/24 11:09:50;;;;;;;0.30;0.30;;;;;;;;;;7394498;19;20364;-86
2023/09/24 11:12:17;;;;;;;0.50;0.50;;;;;;;;;;7392787;19;20674;-86
2023/09/24 11:14:57;;;;;;;0.40;0.40;;;;;;;;;;7394389;19;20365;-86
2023/09/24 11:17:41;;;;;;;0.60;0.60;;;;;;;;;;7393156;19;20348;-88
2023/09/24 11:20:17;;;;;;;0.30;0.30;;;;;;;;;;7393243;19;20376;-86
2023/09/24 11:22:44;;;;;;;0.37;0.37;;;;;;;;;;7394904;19;20361;-86
2023/09/24 11:25:13;;;;;;;0.60;0.60;;;;;;;;;;7423436;19;20344;-90
2023/09/24 11:27:51;;;;;;;0.32;0.32;;;;;;;;;;7426328;19;20367;-94
2023/09/24 11:30:24;;;;;;;0.40;0.40;;;;;;;;;;7419195;19;20383;-85
2023/09/24 11:33:21;;;;;;;0.40;0.40;;;;;;;;;;7393336;19;20420;-86
2023/09/24 11:35:57;;;;;;;0.40;0.40;;;;;;;;;;7396078;19;20423;-87
2023/09/24 11:38:28;;;;;;;0.40;0.40;;;;;;;;;;7394482;19;20692;-87
2023/09/24 11:41:13;;;;;;;0.40;0.40;;;;;;;;;;7394521;19;20348;-88
2023/09/24 11:43:41;;;;;;;0.40;0.40;;;;;;;;;;7393229;19;20367;-86
2023/09/24 11:46:25;;;;;;;0.30;0.30;;;;;;;;;;7397209;19;20375;-87
2023/09/24 11:49:15;;;;;;;0.40;0.40;;;;;;;;;;7396213;19;20674;-87
2023/09/24 11:52:14;;;;;;;0.55;0.55;;;;;;;;;;7394328;19;20722;-87
2023/09/24 11:54:52;;;;;;;0.40;0.40;;;;;;;;;;7394376;19;20415;-88
2023/09/24 11:57:34;;;;;;;0.40;0.40;;;;;;;;;;7392667;19;20352;-86
2023/09/24 12:00:22;;;;;;;;;;;;;;;;;;;;;
2023/09/24 12:02:55;;;;;;;0.30;0.30;;;;;;;;;;7393837;19;20390;-87
2023/09/24 12:05:30;;;;;;;0.65;0.65;;;;;;;;;;7395440;19;20433;-88
2023/09/24 12:08:06;;;;;;;0.40;0.40;;;;;;;;;;7391949;19;20347;-87
2023/09/24 12:10:36;;;;;;;0.32;0.32;;;;;;;;;;7390538;19;20380;-87
2023/09/24 12:13:04;;;;;;;0.40;0.40;;;;;;;;;;7388305;19;20365;-85
2023/09/24 12:15:32;;;;;;;0.30;0.30;;;;;;;;;;7388194;19;20359;-85
2023/09/24 12:17:59;;;;;;;0.70;0.43;;;;;;;;;;7388933;19;20390;-86
2023/09/24 12:20:27;;;;;;;0.50;0.50;;;;;;;;;;7388643;19;20336;-87
2023/09/24 12:22:54;;;;;;;0.40;0.40;;;;;;;;;;7388978;19;20344;-88
2023/09/24 12:25:21;;;;;;;0.40;0.40;;;;;;;;;;7391810;19;20431;-85
2023/09/24 12:27:53;;;;;;;0.35;0.35;;;;;;;;;;7392001;19;20341;-89
2023/09/24 12:30:25;;;;;;;0.30;0.30;;;;;;;;;;7390933;19;20339;-89
2023/09/24 12:32:58;;;;;;;0.30;0.30;;;;;;;;;;7389662;19;20687;-88
2023/09/24 12:35:30;;;;;;;0.30;0.30;;;;;;;;;;7390477;19;20323;-88
2023/09/24 12:38:00;;;;;;;0.40;0.40;;;;;;;;;;7391083;19;20461;-88
2023/09/24 12:40:27;;;;;;;0.50;0.50;;;;;;;;;;7389480;19;20345;-86
2023/09/24 12:43:01;;;;;;;0.50;0.50;;;;;;;;;;7388114;19;20361;-84
2023/09/24 12:45:27;;;;;;;;;;;;;;;;;;7393720;19;20014;-86
2023/09/24 12:47:54;;;;;;;;;;;;;;;;;;7391382;19;19915;-87
2023/09/24 12:50:26;;;;;;;;;;;;;;;;;;7388806;19;19961;-86
2023/09/24 12:52:57;;;;;;;;;;;;;;;;;;7385492;19;19930;-87
2023/09/24 12:55:30;;;;;;;;;;;;;;;;;;7392636;19;19938;-88
2023/09/24 12:58:04;;;;;;;;;;;;;;;;;;7392417;19;19930;-89
2023/09/24 13:00:31;;;;;;;;;;;;;;;;;;7391188;19;19982;-88
2023/09/24 13:02:57;;;;;;;;;;;;;;;;;;7391563;19;19934;-86
2023/09/24 13:05:28;;;;;;;;;;;;;;;;;;7392610;19;19935;-86
2023/09/24 13:08:00;;;;;;;;;;;;;;;;;;7392236;19;19931;-86
2023/09/24 13:10:34;;;;;;;;;;;;;;;;;;7395381;19;19926;-88
2023/09/24 13:13:00;;;;;;;;;;;;;;;;;;7392263;19;20313;-89
2023/09/24 13:15:28;;;;;;;0.30;0.30;;;;;;;;;;7391015;19;20183;-85
2023/09/24 13:17:55;;;;;;;0.30;0.30;;;;;;;;;;7390133;19;20137;-85
2023/09/24 13:20:27;;;;;;;0.40;0.40;;;;;;;;;;7392575;19;20120;-86
2023/09/24 13:22:59;;;;;;;0.30;0.30;;;;;;;;;;7391189;19;20147;-85
2023/09/24 13:25:31;;;;;;;0.30;0.30;;;;;;;;;;7392583;19;20144;-86
2023/09/24 13:28:03;;;;;;;0.30;0.30;;;;;;;;;;7391698;19;20144;-88
2023/09/24 13:30:34;;;;;;;0.30;0.30;;;;;;;;;;7389710;19;20133;-87
2023/09/24 13:33:01;;;;;;;0.30;0.30;;;;;;;;;;7393908;19;20184;-86
2023/09/24 13:35:38;;;;;;;0.40;0.40;;;;;;;;;;7397661;19;20891;-88
2023/09/24 13:38:10;;;;;;;0.30;0.30;;;;;;;;;;7392501;19;20369;-84
2023/09/24 13:40:37;;;;;;;0.30;0.30;;;;;;;;;;7391192;19;20347;-86
2023/09/24 13:43:10;;;;;;;0.40;0.40;;;;;;;;;;7392635;19;20786;-87
2023/09/24 13:45:41;;;;;;;0.37;0.37;;;;;;;;;;7395101;19;20762;-86
2023/09/24 13:48:09;;;;;;;0.30;0.30;;;;;;;;;;7398079;19;20424;-86
2023/09/24 13:54:28;;;;;;;0.30;0.30;;;;;;;;;;7395627;19;20375;-88
2023/09/24 13:57:03;;;;;;;0.40;0.40;;;;;;;;;;7395940;19;20347;-90
2023/09/24 14:00:07;;;;;;;0.30;0.30;;;;;;;;;;7399757;19;20697;-88
2023/09/24 14:02:50;;;;;;;0.60;0.60;;;;;;;;;;7396493;19;20341;-89
2023/09/24 14:05:36;;;;;;;0.30;0.30;;;;;;;;;;7397495;19;20331;-87
2023/09/24 14:13:52;;;;;;;0.55;0.55;;;;;;;;;;7393025;19;20361;-87
2023/09/24 14:16:38;;;;;;;0.50;0.50;;;;;;;;;;7393980;19;20864;-87
2023/09/24 14:19:23;;;;;;;0.52;0.52;;;;;;;;;;7392971;19;20368;-87
2023/09/24 14:21:50;;;;;;;0.40;0.40;;;;;;;;;;7394592;19;20340;-89
2023/09/24 14:24:21;;;;;;;0.40;0.40;;;;;;;;;;7398651;19;20777;-88
2023/09/24 14:26:47;;;;;;;0.40;0.40;;;;;;;;;;7395001;19;20377;-87
2023/09/24 14:29:14;;;;;;;0.32;0.32;;;;;;;;;;7393606;19;20432;-87
2023/09/24 14:31:41;;;;;;;0.80;0.70;;;;;;;;;;7393490;19;20369;-87
2023/09/24 14:34:08;;;;;;;0.40;0.40;;;;;;;;;;7393208;19;20373;-86
2023/09/24 14:36:35;;;;;;;0.40;0.40;;;;;;;;;;7388619;19;20352;-87
2023/09/24 14:39:03;;;;;;;0.40;0.40;;;;;;;;;;7389420;19;20357;-87
2023/09/24 14:41:30;;;;;;;0.40;0.40;;;;;;;;;;7393076;19;20349;-87
2023/09/24 14:44:04;;;;;;;0.35;0.35;;;;;;;;;;7388760;19;20345;-88
2023/09/24 14:46:31;;;;;;;0.40;0.40;;;;;;;;;;7391308;19;20685;-86
2023/09/24 14:48:58;;;;;;;0.50;0.50;;;;;;;;;;7392174;19;20686;-91
2023/09/24 14:51:26;;;;;;;0.80;0.50;;;;;;;;;;7396888;19;20393;-86
2023/09/24 14:53:58;;;;;;;0.50;0.50;;;;;;;;;;7395495;19;20353;-89
2023/09/24 14:56:26;;;;;;;0.30;0.30;;;;;;;;;;7391640;19;20345;-85
2023/09/24 14:58:54;;;;;;;0.40;0.40;;;;;;;;;;7391190;19;20402;-85
2023/09/24 15:01:21;;;;;;;0.40;0.40;;;;;;;;;;7394024;19;20364;-86
2023/09/24 15:03:52;;;;;;;0.30;0.30;;;;;;;;;;7396742;19;20432;-87
2023/09/24 15:06:19;;;;;;;0.60;0.60;;;;;;;;;;7396107;19;20348;-85
2023/09/24 15:08:56;;;;;;;0.40;0.40;;;;;;;;;;7397116;19;20347;-89
2023/09/24 15:11:22;;;;;;;1.00;0.50;;;;;;;;;;7399902;19;20377;-88
2023/09/24 15:13:49;;;;;;;0.45;0.45;;;;;;;;;;7398120;19;20372;-86
2023/09/24 15:16:19;;;;;;;0.47;0.47;;;;;;;;;;7396022;19;20713;-89
2023/09/24 15:18:47;;;;;;;0.50;0.50;;;;;;;;;;7393769;19;20343;-87
2023/09/24 15:21:16;;;;;;;0.30;0.30;;;;;;;;;;7393244;19;20412;-87
2023/09/24 15:23:43;;;;;;;0.43;0.43;;;;;;;;;;7395090;19;20361;-88
2023/09/24 15:26:10;;;;;;;0.40;0.40;;;;;;;;;;7393922;19;20359;-87
2023/09/24 15:28:37;;;;;;;10.10;0.50;;;;;;;;;;7396545;19;20353;-91
2023/09/24 15:31:06;;;;;;;0.37;0.37;;;;;;;;;;7423165;19;20359;-91
2023/09/24 15:33:33;;;;;;;0.40;0.40;;;;;;;;;;7423599;19;20364;-91
2023/09/24 15:36:00;;;;;;;0.40;0.40;;;;;;;;;;7413698;19;20430;-87
2023/09/24 15:38:29;;;;;;;0.30;0.30;;;;;;;;;;7397519;19;20724;-86
2023/09/24 15:40:55;;;;;;;0.30;0.30;;;;;;;;;;7394349;19;20427;-86
2023/09/24 15:43:22;;;;;;;0.30;0.30;;;;;;;;;;7394548;19;20361;-85
2023/09/24 15:45:49;;;;;;;0.40;0.40;;;;;;;;;;7393712;19;20373;-88
2023/09/24 15:48:16;;;;;;;0.50;0.50;;;;;;;;;;7392728;19;20356;-88
2023/09/24 15:50:46;;;;;;;0.63;0.63;;;;;;;;;;7392447;19;20351;-85
2023/09/24 15:53:16;;;;;;;0.40;0.40;;;;;;;;;;7387381;19;20349;-88
2023/09/24 15:55:49;;;;;;;0.40;0.40;;;;;;;;;;7389900;19;20373;-87
2023/09/24 15:58:16;;;;;;;0.47;0.47;;;;;;;;;;7393475;19;20786;-87
2023/09/24 16:00:43;;;;;;;0.25;0.25;;;;;;;;;;7393860;19;20360;-88
2023/09/24 16:03:10;;;;;;;0.30;0.30;;;;;;;;;;7392105;19;20416;-87
2023/09/24 16:05:38;;;;;;;0.30;0.30;;;;;;;;;;7390695;19;20348;-86
2023/09/24 16:08:05;;;;;;;0.40;0.40;;;;;;;;;;7390928;19;20352;-87
2023/09/24 16:10:35;;;;;;;0.30;0.30;;;;;;;;;;7392941;19;20328;-87
2023/09/24 16:13:01;;;;;;;0.30;0.30;;;;;;;;;;7397970;19;20705;-91
2023/09/24 16:15:30;;;;;;;0.32;0.32;;;;;;;;;;7393793;19;20372;-89
2023/09/24 16:17:57;;;;;;;0.40;0.40;;;;;;;;;;7392669;19;20365;-88
2023/09/24 16:20:26;;;;;;;0.40;0.40;;;;;;;;;;7391946;19;20894;-88
2023/09/24 16:22:53;;;;;;;0.50;0.50;;;;;;;;;;7391238;19;20414;-87
2023/09/24 16:25:20;;;;;;;0.32;0.32;;;;;;;;;;7392822;19;20372;-87
2023/09/24 16:27:48;;;;;;;0.35;0.35;;;;;;;;;;7392165;19;20384;-88
2023/09/24 16:30:17;;;;;;;0.30;0.30;;;;;;;;;;7390772;19;20341;-88
2023/09/24 16:32:46;;;;;;;0.40;0.40;;;;;;;;;;7390376;19;20336;-89
2023/09/24 16:35:19;;;;;;;0.40;0.40;;;;;;;;;;7387379;19;20750;-89
2023/09/24 16:37:48;;;;;;;0.30;0.30;;;;;;;;;;7388326;19;20360;-87
2023/09/24 16:40:20;;;;;;;0.30;0.30;;;;;;;;;;7388587;19;20472;-88
2023/09/24 16:42:55;;;;;;;0.43;0.43;;;;;;;;;;7400246;19;20364;-89
2023/09/24 16:45:25;;;;;;;0.40;0.40;;;;;;;;;;7403988;19;20405;-87
2023/09/24 16:47:56;;;;;;;0.35;0.35;;;;;;;;;;7398570;19;20455;-89
2023/09/24 16:50:28;;;;;;;1.00;0.70;;;;;;;;;;7397584;19;20365;-89
2023/09/24 16:53:03;;;;;;;0.43;0.43;;;;;;;;;;7392969;19;20345;-88
2023/09/24 16:55:36;;;;;;;0.50;0.50;;;;;;;;;;7385439;19;20361;-88
2023/09/24 16:58:11;;;;;;;0.50;0.50;;;;;;;;;;7383101;19;20356;-89
2023/09/24 17:00:41;;;;;;;0.30;0.30;;;;;;;;;;7383976;19;20431;-88
2023/09/24 17:03:15;;;;;;;0.20;0.20;;;;;;;;;;7387579;19;20368;-89
2023/09/24 17:05:46;;;;;;;0.30;0.30;;;;;;;;;;7388978;19;20352;-88
2023/09/24 17:08:15;;;;;;;0.40;0.40;;;;;;;;;;7387938;19;20355;-89
2023/09/24 17:10:50;;;;;;;0.40;0.40;;;;;;;;;;7411745;19;20374;-92
2023/09/24 17:13:19;;;;;;;0.30;0.30;;;;;;;;;;7420947;19;20352;-91
2023/09/24 17:15:47;;;;;;;0.30;0.30;;;;;;;;;;7420173;19;20396;-88
2023/09/24 17:18:26;;;;;;;0.60;0.60;;;;;;;;;;7392153;19;20345;-89
2023/09/24 17:21:04;;;;;;;2.10;1.10;;;;;;;;;;7412565;19;20360;-90
2023/09/24 17:23:32;;;;;;;0.50;0.50;;;;;;;;;;7397043;19;20356;-87
2023/09/24 17:26:16;;;;;;;0.90;0.90;;;;;;;;;;7388315;19;20356;-87
2023/09/24 17:28:44;;;;;;;0.55;0.55;;;;;;;;;;7388264;19;20369;-88
2023/09/24 17:31:13;;;;;;;0.40;0.40;;;;;;;;;;7390264;19;20354;-88
2023/09/24 17:33:42;;;;;;;0.50;0.50;;;;;;;;;;7401987;19;20352;-89
2023/09/24 17:36:20;;;;;;;0.50;0.50;;;;;;;;;;7418906;19;20396;-93
2023/09/24 17:38:50;;;;;;;0.40;0.40;;;;;;;;;;7419693;19;20352;-93
2023/09/24 17:41:18;;;;;;;0.50;0.50;;;;;;;;;;7419999;19;20344;-95
2023/09/24 17:43:49;;;;;;;0.40;0.40;;;;;;;;;;7421958;19;20371;-93
2023/09/24 17:46:23;;;;;;;0.40;0.40;;;;;;;;;;7422521;19;20363;-95
2023/09/24 17:48:52;;;;;;;0.55;0.35;;;;;;;;;;7421437;19;20368;-96
2023/09/24 17:51:21;;;;;;;0.23;0.23;;;;;;;;;;7421760;19;20363;-96
2023/09/24 17:53:49;;;;;;;0.38;0.38;;;;;;;;;;7397276;19;21110;-88
2023/09/24 17:56:20;;;;;;;0.40;0.40;;;;;;;;;;7389798;19;20447;-90
2023/09/24 17:58:58;;;;;;;0.43;0.43;;;;;;;;;;7389486;19;20378;-89
2023/09/24 18:01:38;;;;;;;0.30;0.30;;;;;;;;;;7391406;19;20337;-88
2023/09/24 18:04:07;;;;;;;0.30;0.30;;;;;;;;;;7390911;19;20388;-89
2023/09/24 18:06:44;;;;;;;0.50;0.50;;;;;;;;;;7388221;19;20387;-91
2023/09/24 18:09:18;;;;;;;0.50;0.50;;;;;;;;;;7387789;19;20349;-89
2023/09/24 18:11:50;;;;;;;0.45;0.45;;;;;;;;;;7386622;19;20377;-88
2023/09/24 18:14:18;;;;;;;0.50;0.50;;;;;;;;;;7384642;19;20363;-89
2023/09/24 18:16:47;;;;;;;0.30;0.30;;;;;;;;;;7377627;19;20395;-89
2023/09/24 18:19:16;;;;;;;0.35;0.35;;;;;;;;;;7378538;19;20772;-89
2023/09/24 18:21:46;;;;;;;0.50;0.50;;;;;;;;;;7388214;19;20855;-90
2023/09/24 18:24:14;;;;;;;0.60;0.60;;;;;;;;;;7387625;19;20435;-88
2023/09/24 18:26:44;;;;;;;0.40;0.40;;;;;;;;;;7388419;19;20452;-90
2023/09/24 18:29:18;;;;;;;0.30;0.30;;;;;;;;;;7390966;19;20427;-89
2023/09/24 18:31:46;;;;;;;0.40;0.40;;;;;;;;;;7394003;19;20368;-88
2023/09/24 18:34:15;;;;;;;0.43;0.43;;;;;;;;;;7395354;19;20888;-90
2023/09/24 18:36:47;;;;;;;0.50;0.50;;;;;;;;;;7395443;19;20381;-88
2023/09/24 18:39:17;;;;;;;0.50;0.50;;;;;;;;;;7392298;19;20395;-88
2023/09/24 18:41:46;;;;;;;0.30;0.30;;;;;;;;;;7395701;19;20356;-88
2023/09/24 18:44:14;;;;;;;0.60;0.60;;;;;;;;;;7407090;19;20487;-91
2023/09/24 18:46:50;;;;;;;0.50;0.50;;;;;;;;;;7400002;19;20359;-89
2023/09/24 18:49:30;;;;;;;0.47;0.47;;;;;;;;;;7396332;19;20357;-89
2023/09/24 18:51:58;;;;;;;0.40;0.40;;;;;;;;;;7395049;19;20523;-89
2023/09/24 18:54:32;;;;;;;0.50;0.50;;;;;;;;;;7396739;19;20351;-89
2023/09/24 18:57:01;;;;;;;0.50;0.50;;;;;;;;;;7396830;19;20352;-88
2023/09/24 18:59:29;;;;;;;0.57;0.57;;;;;;;;;;7394270;19;20369;-89
2023/09/24 19:01:59;;;;;;;0.90;0.45;;;;;;;;;;7392266;19;20357;-90
2023/09/24 19:04:40;;;;;;;4.00;0.50;;;;;;;;;;7390969;19;20349;-90
2023/09/24 19:07:11;;;;;;;0.30;0.30;;;;;;;;;;7395023;19;20356;-89
2023/09/24 19:09:40;;;;;;;0.30;0.30;;;;;;;;;;7391568;19;20960;-90
2023/09/24 19:12:09;;;;;;;0.40;0.40;;;;;;;;;;7391150;19;20345;-89
2023/09/24 19:14:38;;;;;;;0.40;0.40;;;;;;;;;;7392087;19;20755;-90
2023/09/24 19:17:06;;;;;;;0.30;0.30;;;;;;;;;;7393592;19;20348;-92
2023/09/24 19:19:35;;;;;;;0.60;0.60;;;;;;;;;;7392811;19;20352;-92
2023/09/24 19:22:06;;;;;;;0.40;0.40;;;;;;;;;;7394518;19;20911;-89
2023/09/24 19:24:34;;;;;;;0.30;0.30;;;;;;;;;;7395271;19;20327;-90
2023/09/24 19:27:03;;;;;;;0.40;0.40;;;;;;;;;;7395180;19;20385;-88
2023/09/24 19:29:31;;;;;;;0.40;0.40;;;;;;;;;;7393034;19;20342;-90
2023/09/24 19:32:04;;;;;;;0.50;0.50;;;;;;;;;;7393950;19;20888;-89
2023/09/24 19:34:32;;;;;;;0.30;0.30;;;;;;;;;;7395183;19;20355;-89
2023/09/24 19:37:06;;;;;;;0.40;0.40;;;;;;;;;;7396906;19;20353;-89
2023/09/24 19:39:37;;;;;;;0.30;0.30;;;;;;;;;;7391718;19;20416;-89
2023/09/24 19:42:10;;;;;;;0.40;0.40;;;;;;;;;;7394437;19;20345;-90
2023/09/24 19:44:43;;;;;;;0.50;0.40;;;;;;;;;;7396373;19;20960;-89
2023/09/24 19:47:19;;;;;;;0.40;0.40;;;;;;;;;;7396640;19;20356;-89
2023/09/24 19:49:47;;;;;;;0.73;0.40;;;;;;;;;;7392913;19;20359;-89
2023/09/24 19:52:16;;;;;;;0.30;0.30;;;;;;;;;;7393152;19;20341;-88
2023/09/24 19:54:44;;;;;;;0.40;0.40;;;;;;;;;;7392097;19;20351;-88
2023/09/24 19:57:15;;;;;;;0.40;0.40;;;;;;;;;;7395805;19;20364;-87
2023/09/24 19:59:48;;;;;;;0.30;0.30;;;;;;;;;;7391498;19;20353;-88
2023/09/24 20:02:16;;;;;;;0.50;0.50;;;;;;;;;;7392142;19;20349;-88
2023/09/24 20:04:46;;;;;;;0.40;0.40;;;;;;;;;;7391691;19;20440;-88
2023/09/24 20:07:15;;;;;;;0.50;0.50;;;;;;;;;;7392685;19;20349;-87
2023/09/24 20:09:50;;;;;;;0.30;0.30;;;;;;;;;;7388974;19;20353;-89
2023/09/24 20:12:24;;;;;;;0.32;0.32;;;;;;;;;;7389620;19;20358;-88
2023/09/24 20:14:53;;;;;;;0.40;0.40;;;;;;;;;;7389765;19;20348;-88
2023/09/24 20:17:22;;;;;;;0.30;0.30;;;;;;;;;;7392433;19;20352;-88
2023/09/24 20:19:59;;;;;;;0.45;0.45;;;;;;;;;;7388684;19;20349;-88
2023/09/24 20:22:34;;;;;;;0.60;0.60;;;;;;;;;;7390379;19;20381;-87
2023/09/24 20:25:10;;;;;;;0.40;0.40;;;;;;;;;;7391703;19;20349;-88
2023/09/24 20:27:38;;;;;;;0.30;0.30;;;;;;;;;;7391265;19;20359;-88
2023/09/24 20:30:10;;;;;;;0.40;0.40;;;;;;;;;;7390293;19;20361;-88
2023/09/24 20:32:39;;;;;;;0.50;0.50;;;;;;;;;;7389297;19;20336;-89
2023/09/24 20:35:10;;;;;;;0.40;0.40;;;;;;;;;;7388891;19;20361;-88
2023/09/24 20:37:44;;;;;;;0.50;0.50;;;;;;;;;;7390366;19;20368;-88
2023/09/24 20:40:15;;;;;;;0.47;0.47;;;;;;;;;;7388260;19;20354;-88
2023/09/24 20:42:44;;;;;;;0.50;0.50;;;;;;;;;;7387207;19;20415;-87
2023/09/24 20:45:13;;;;;;;2.40;0.60;;;;;;;;;;7389331;19;20404;-88
2023/09/24 20:47:45;;;;;;;0.30;0.30;;;;;;;;;;7390195;19;20634;-88
2023/09/24 20:50:13;;;;;;;0.30;0.30;;;;;;;;;;7389621;19;20356;-87
2023/09/24 20:52:45;;;;;;;0.50;0.50;;;;;;;;;;7388578;19;20439;-88
2023/09/24 20:55:14;;;;;;;0.30;0.30;;;;;;;;;;7388034;19;20363;-88
2023/09/24 20:57:42;;;;;;;0.40;0.40;;;;;;;;;;7388380;19;20424;-91
2023/09/24 21:00:11;;;;;;;0.50;0.50;;;;;;;;;;7384023;19;20447;-89
2023/09/24 21:02:43;;;;;;;0.28;0.28;;;;;;;;;;7390173;19;20352;-88
2023/09/24 21:05:11;;;;;;;0.38;0.38;;;;;;;;;;7391053;19;20679;-88
2023/09/24 21:07:40;;;;;;;0.45;0.45;;;;;;;;;;7391262;19;20377;-88
2023/09/24 21:10:09;;;;;;;0.50;0.50;;;;;;;;;;7390570;19;20347;-88
2023/09/24 21:12:38;;;;;;;0.50;0.50;;;;;;;;;;7407381;19;20396;-91
2023/09/24 21:15:06;;;;;;;0.30;0.30;;;;;;;;;;7426072;19;20372;-92
2023/09/24 21:17:35;;;;;;;0.50;0.50;;;;;;;;;;7425617;19;20369;-93
2023/09/24 21:20:09;;;;;;;0.38;0.38;;;;;;;;;;7400698;19;20868;-88
2023/09/24 21:22:37;;;;;;;0.30;0.30;;;;;;;;;;7392074;19;20340;-87
2023/09/24 21:25:10;;;;;;;0.40;0.40;;;;;;;;;;7394289;19;20377;-88
2023/09/24 21:27:38;;;;;;;0.68;0.55;;;;;;;;;;7392145;19;20348;-88
2023/09/24 21:30:14;;;;;;;0.35;0.35;;;;;;;;;;7392156;19;20356;-90
2023/09/24 21:32:45;;;;;;;0.40;0.40;;;;;;;;;;7391331;19;20347;-88
2023/09/24 21:35:13;;;;;;;0.40;0.40;;;;;;;;;;7393917;19;20352;-89
2023/09/24 21:37:45;;;;;;;0.30;0.30;;;;;;;;;;7391294;19;20819;-88
2023/09/24 21:40:16;;;;;;;0.30;0.30;;;;;;;;;;7392106;19;20424;-88
2023/09/24 21:43:00;;;;;;;2.30;1.20;;;;;;;;;;7390785;19;20365;-89
2023/09/24 21:45:40;;;;;;;0.40;0.40;;;;;;;;;;7391791;19;20345;-88
2023/09/24 21:48:30;;;;;;;1.10;0.40;;;;;;;;;;7393597;19;20901;-87
2023/09/24 21:51:01;;;;;;;0.20;0.20;;;;;;;;;;7390662;19;20345;-87
2023/09/24 21:53:32;;;;;;;0.40;0.40;;;;;;;;;;7395945;19;20358;-88
2023/09/24 21:56:02;;;;;;;0.40;0.40;;;;;;;;;;7396564;19;20341;-88
2023/09/24 21:58:31;;;;;;;0.30;0.30;;;;;;;;;;7396981;19;20764;-88
2023/09/24 22:01:01;;;;;;;0.40;0.40;;;;;;;;;;7397029;19;20356;-89
2023/09/24 22:03:31;;;;;;;0.90;0.40;;;;;;;;;;7396195;19;20385;-88
2023/09/24 22:06:04;;;;;;;0.43;0.43;;;;;;;;;;7396086;19;20352;-89
2023/09/24 22:08:34;;;;;;;0.80;0.80;;;;;;;;;;7396123;19;20995;-88
2023/09/24 22:11:07;;;;;;;1.40;1.30;;;;;;;;;;7398670;19;20337;-88
2023/09/24 22:13:55;;;;;;;0.50;0.50;;;;;;;;;;7399563;19;20341;-90
2023/09/24 22:16:24;;;;;;;0.40;0.40;;;;;;;;;;7396301;19;20360;-90
2023/09/24 22:18:51;;;;;;;0.28;0.28;;;;;;;;;;7399132;19;20356;-89
2023/09/24 22:21:18;;;;;;;0.53;0.53;;;;;;;;;;7396643;19;20360;-89
2023/09/24 22:23:45;;;;;;;0.70;0.70;;;;;;;;;;7398588;19;20377;-90
2023/09/24 22:26:11;;;;;;;0.50;0.50;;;;;;;;;;7399230;19;20791;-88
2023/09/24 22:28:38;;;;;;;0.50;0.50;;;;;;;;;;7394431;19;20356;-89
2023/09/24 22:31:05;;;;;;;0.30;0.30;;;;;;;;;;7397494;19;20360;-89
2023/09/24 22:33:32;;;;;;;0.40;0.40;;;;;;;;;;7398379;19;20356;-89
2023/09/24 22:35:59;;;;;;;0.20;0.20;;;;;;;;;;7400082;19;20706;-87
2023/09/24 22:38:27;;;;;;;0.40;0.40;;;;;;;;;;7399860;19;20373;-88
2023/09/24 22:40:54;;;;;;;0.20;0.20;;;;;;;;;;7393627;19;20354;-89
2023/09/24 22:43:22;;;;;;;0.40;0.40;;;;;;;;;;7394476;19;20365;-87
2023/09/24 22:45:52;;;;;;;0.30;0.30;;;;;;;;;;7394545;19;20377;-89
2023/09/24 22:48:21;;;;;;;0.50;0.50;;;;;;;;;;7395497;19;20385;-87
2023/09/24 22:50:51;;;;;;;0.30;0.30;;;;;;;;;;7394110;19;20358;-89
2023/09/24 22:53:19;;;;;;;0.40;0.40;;;;;;;;;;7394324;19;20340;-90
